sensor_id;sensor_type;location;lat;lon;timestamp;P1;durP1;ratioP1;P2;durP2;ratioP2
3217;SDS011;1621;49.702;8.618;2023-01-30T00:01:54;21.40;;;15.07;;
3217;SDS011;1621;49.702;8.618;2023-01-30T00:04:20;21.90;;;15.73;;
3217;SDS011;1621;49.702;8.618;2023-01-30T00:06:46;23.00;;;15.53;;
3217;SDS011;1621;49.702;8.618;2023-01-30T00:09:13;20.50;;;15.67;;
3217;SDS011;1621;49.702;8.618;2023-01-30T00:11:40;21.03;;;15.17;;
3217;SDS011;1621;49.702;8.618;2023-01-30T00:14:07;21.40;;;15.33;;
3217;SDS011;1621;49.702;8.618;2023-01-30T00:16:33;18.60;;;14.10;;
3217;SDS011;1621;49.702;8.618;2023-01-30T00:18:59;20.50;;;14.90;;
3217;SDS011;1621;49.702;8.618;2023-01-30T00:21:26;20.63;;;15.50;;
3217;SDS011;1621;49.702;8.618;2023-01-30T00:23:52;21.20;;;15.90;;
3217;SDS011;1621;49.702;8.618;2023-01-30T00:26:18;21.17;;;16.17;;
3217;SDS011;1621;49.702;8.618;2023-01-30T00:28:46;23.67;;;17.10;;
3217;SDS011;1621;49.702;8.618;2023-01-30T00:31:12;19.27;;;15.40;;
3217;SDS011;1621;49.702;8.618;2023-01-30T00:33:38;26.30;;;16.97;;
3217;SDS011;1621;49.702;8.618;2023-01-30T00:36:05;22.27;;;15.50;;
3217;SDS011;1621;49.702;8.618;2023-01-30T00:38:31;18.87;;;14.63;;
3217;SDS011;1621;49.702;8.618;2023-01-30T00:40:57;21.07;;;15.23;;
3217;SDS011;1621;49.702;8.618;2023-01-30T00:43:24;22.10;;;14.80;;
3217;SDS011;1621;49.702;8.618;2023-01-30T00:46:11;20.90;;;14.40;;
3217;SDS011;1621;49.702;8.618;2023-01-30T00:48:57;21.93;;;15.67;;
3217;SDS011;1621;49.702;8.618;2023-01-30T00:51:23;19.00;;;14.97;;
3217;SDS011;1621;49.702;8.618;2023-01-30T00:53:50;22.37;;;16.47;;
3217;SDS011;1621;49.702;8.618;2023-01-30T00:56:16;22.40;;;15.80;;
3217;SDS011;1621;49.702;8.618;2023-01-30T00:58:42;21.10;;;16.40;;
3217;SDS011;1621;49.702;8.618;2023-01-30T01:01:08;23.47;;;15.47;;
3217;SDS011;1621;49.702;8.618;2023-01-30T01:03:36;22.90;;;16.80;;
3217;SDS011;1621;49.702;8.618;2023-01-30T01:06:02;20.60;;;14.30;;
3217;SDS011;1621;49.702;8.618;2023-01-30T01:08:28;24.00;;;15.07;;
3217;SDS011;1621;49.702;8.618;2023-01-30T01:10:55;21.73;;;15.93;;
3217;SDS011;1621;49.702;8.618;2023-01-30T01:13:21;19.87;;;13.87;;
3217;SDS011;1621;49.702;8.618;2023-01-30T01:15:48;25.60;;;16.10;;
3217;SDS011;1621;49.702;8.618;2023-01-30T01:18:14;20.20;;;14.03;;
3217;SDS011;1621;49.702;8.618;2023-01-30T01:20:42;22.00;;;15.13;;
3217;SDS011;1621;49.702;8.618;2023-01-30T01:23:08;22.83;;;15.60;;
3217;SDS011;1621;49.702;8.618;2023-01-30T01:25:35;23.77;;;16.30;;
3217;SDS011;1621;49.702;8.618;2023-01-30T01:28:01;21.90;;;16.00;;
3217;SDS011;1621;49.702;8.618;2023-01-30T01:30:27;22.03;;;14.50;;
3217;SDS011;1621;49.702;8.618;2023-01-30T01:32:54;21.87;;;15.47;;
3217;SDS011;1621;49.702;8.618;2023-01-30T01:35:21;21.90;;;15.33;;
3217;SDS011;1621;49.702;8.618;2023-01-30T01:37:48;24.77;;;16.50;;
3217;SDS011;1621;49.702;8.618;2023-01-30T01:40:18;21.60;;;15.40;;
3217;SDS011;1621;49.702;8.618;2023-01-30T01:43:05;22.70;;;16.30;;
3217;SDS011;1621;49.702;8.618;2023-01-30T01:45:34;21.20;;;15.10;;
3217;SDS011;1621;49.702;8.618;2023-01-30T01:48:01;20.60;;;14.27;;
3217;SDS011;1621;49.702;8.618;2023-01-30T01:50:30;22.47;;;15.50;;
3217;SDS011;1621;49.702;8.618;2023-01-30T01:52:59;22.63;;;16.00;;
3217;SDS011;1621;49.702;8.618;2023-01-30T01:55:26;24.00;;;15.33;;
3217;SDS011;1621;49.702;8.618;2023-01-30T01:57:54;21.93;;;15.13;;
3217;SDS011;1621;49.702;8.618;2023-01-30T02:00:22;21.03;;;15.23;;
3217;SDS011;1621;49.702;8.618;2023-01-30T02:02:50;20.80;;;15.20;;
3217;SDS011;1621;49.702;8.618;2023-01-30T02:05:17;22.23;;;15.80;;
3217;SDS011;1621;49.702;8.618;2023-01-30T02:07:46;23.83;;;15.80;;
3217;SDS011;1621;49.702;8.618;2023-01-30T02:10:17;22.03;;;15.53;;
3217;SDS011;1621;49.702;8.618;2023-01-30T02:12:44;20.77;;;14.67;;
3217;SDS011;1621;49.702;8.618;2023-01-30T02:15:10;24.17;;;16.40;;
3217;SDS011;1621;49.702;8.618;2023-01-30T02:17:36;22.83;;;15.70;;
3217;SDS011;1621;49.702;8.618;2023-01-30T02:20:03;20.30;;;14.97;;
3217;SDS011;1621;49.702;8.618;2023-01-30T02:28:10;24.00;;;14.87;;
3217;SDS011;1621;49.702;8.618;2023-01-30T02:30:46;19.83;;;14.23;;
3217;SDS011;1621;49.702;8.618;2023-01-30T02:33:18;21.37;;;14.97;;
3217;SDS011;1621;49.702;8.618;2023-01-30T02:35:49;23.63;;;15.23;;
3217;SDS011;1621;49.702;8.618;2023-01-30T02:38:29;20.80;;;14.10;;
3217;SDS011;1621;49.702;8.618;2023-01-30T02:41:00;19.93;;;13.90;;
3217;SDS011;1621;49.702;8.618;2023-01-30T02:43:28;24.13;;;15.57;;
3217;SDS011;1621;49.702;8.618;2023-01-30T02:45:58;25.13;;;15.80;;
3217;SDS011;1621;49.702;8.618;2023-01-30T02:48:26;22.17;;;13.90;;
3217;SDS011;1621;49.702;8.618;2023-01-30T02:50:54;18.23;;;12.97;;
3217;SDS011;1621;49.702;8.618;2023-01-30T02:53:22;19.17;;;14.43;;
3217;SDS011;1621;49.702;8.618;2023-01-30T02:55:49;23.03;;;14.87;;
3217;SDS011;1621;49.702;8.618;2023-01-30T02:58:15;21.50;;;14.07;;
3217;SDS011;1621;49.702;8.618;2023-01-30T03:00:51;23.77;;;15.03;;
3217;SDS011;1621;49.702;8.618;2023-01-30T03:03:24;22.40;;;14.83;;
3217;SDS011;1621;49.702;8.618;2023-01-30T03:05:58;23.20;;;16.20;;
3217;SDS011;1621;49.702;8.618;2023-01-30T03:08:30;22.00;;;15.13;;
3217;SDS011;1621;49.702;8.618;2023-01-30T03:10:59;22.20;;;15.53;;
3217;SDS011;1621;49.702;8.618;2023-01-30T03:13:27;23.00;;;14.40;;
3217;SDS011;1621;49.702;8.618;2023-01-30T03:15:55;21.67;;;14.83;;
3217;SDS011;1621;49.702;8.618;2023-01-30T03:18:25;19.93;;;14.20;;
3217;SDS011;1621;49.702;8.618;2023-01-30T03:20:51;23.70;;;15.77;;
3217;SDS011;1621;49.702;8.618;2023-01-30T03:23:17;21.00;;;13.77;;
3217;SDS011;1621;49.702;8.618;2023-01-30T03:25:43;19.47;;;13.50;;
3217;SDS011;1621;49.702;8.618;2023-01-30T03:28:10;21.60;;;14.60;;
3217;SDS011;1621;49.702;8.618;2023-01-30T03:30:39;22.23;;;14.90;;
3217;SDS011;1621;49.702;8.618;2023-01-30T03:33:05;19.10;;;13.50;;
3217;SDS011;1621;49.702;8.618;2023-01-30T03:35:33;22.33;;;14.03;;
3217;SDS011;1621;49.702;8.618;2023-01-30T03:37:59;19.70;;;13.23;;
3217;SDS011;1621;49.702;8.618;2023-01-30T03:40:26;20.47;;;14.27;;
3217;SDS011;1621;49.702;8.618;2023-01-30T03:42:52;18.73;;;13.50;;
3217;SDS011;1621;49.702;8.618;2023-01-30T03:45:18;21.80;;;13.93;;
3217;SDS011;1621;49.702;8.618;2023-01-30T03:47:44;19.23;;;13.03;;
3217;SDS011;1621;49.702;8.618;2023-01-30T03:50:11;22.53;;;13.10;;
3217;SDS011;1621;49.702;8.618;2023-01-30T03:52:38;18.10;;;12.87;;
3217;SDS011;1621;49.702;8.618;2023-01-30T03:55:05;22.60;;;14.67;;
3217;SDS011;1621;49.702;8.618;2023-01-30T03:57:31;22.20;;;14.33;;
3217;SDS011;1621;49.702;8.618;2023-01-30T03:59:57;22.17;;;14.20;;
3217;SDS011;1621;49.702;8.618;2023-01-30T04:02:23;21.00;;;13.80;;
3217;SDS011;1621;49.702;8.618;2023-01-30T04:04:50;20.60;;;13.30;;
3217;SDS011;1621;49.702;8.618;2023-01-30T04:07:16;21.27;;;14.03;;
3217;SDS011;1621;49.702;8.618;2023-01-30T04:09:44;23.37;;;14.53;;
3217;SDS011;1621;49.702;8.618;2023-01-30T04:12:10;24.40;;;14.73;;
3217;SDS011;1621;49.702;8.618;2023-01-30T04:14:36;22.77;;;15.13;;
3217;SDS011;1621;49.702;8.618;2023-01-30T04:17:02;21.27;;;14.00;;
3217;SDS011;1621;49.702;8.618;2023-01-30T04:19:28;23.10;;;15.27;;
3217;SDS011;1621;49.702;8.618;2023-01-30T04:21:55;24.17;;;16.00;;
3217;SDS011;1621;49.702;8.618;2023-01-30T04:24:21;25.13;;;16.47;;
3217;SDS011;1621;49.702;8.618;2023-01-30T04:26:48;19.67;;;14.43;;
3217;SDS011;1621;49.702;8.618;2023-01-30T04:29:15;24.53;;;15.63;;
3217;SDS011;1621;49.702;8.618;2023-01-30T04:31:41;25.43;;;16.80;;
3217;SDS011;1621;49.702;8.618;2023-01-30T04:34:07;23.00;;;15.37;;
3217;SDS011;1621;49.702;8.618;2023-01-30T04:36:33;26.40;;;16.20;;
3217;SDS011;1621;49.702;8.618;2023-01-30T04:39:00;23.73;;;16.40;;
3217;SDS011;1621;49.702;8.618;2023-01-30T04:41:27;25.07;;;16.50;;
3217;SDS011;1621;49.702;8.618;2023-01-30T04:43:54;25.20;;;16.57;;
3217;SDS011;1621;49.702;8.618;2023-01-30T04:46:20;25.40;;;16.10;;
3217;SDS011;1621;49.702;8.618;2023-01-30T04:48:47;25.63;;;16.20;;
3217;SDS011;1621;49.702;8.618;2023-01-30T04:51:13;23.23;;;15.70;;
3217;SDS011;1621;49.702;8.618;2023-01-30T04:53:39;23.93;;;16.00;;
3217;SDS011;1621;49.702;8.618;2023-01-30T04:56:06;23.57;;;15.90;;
3217;SDS011;1621;49.702;8.618;2023-01-30T04:58:32;26.93;;;17.20;;
3217;SDS011;1621;49.702;8.618;2023-01-30T05:01:12;24.70;;;17.03;;
3217;SDS011;1621;49.702;8.618;2023-01-30T05:03:38;23.80;;;16.50;;
3217;SDS011;1621;49.702;8.618;2023-01-30T05:06:05;23.97;;;16.17;;
3217;SDS011;1621;49.702;8.618;2023-01-30T05:08:31;25.03;;;15.23;;
3217;SDS011;1621;49.702;8.618;2023-01-30T05:10:57;22.40;;;15.50;;
3217;SDS011;1621;49.702;8.618;2023-01-30T05:13:24;25.90;;;17.80;;
3217;SDS011;1621;49.702;8.618;2023-01-30T05:15:50;25.77;;;15.73;;
3217;SDS011;1621;49.702;8.618;2023-01-30T05:18:17;24.37;;;16.50;;
3217;SDS011;1621;49.702;8.618;2023-01-30T05:20:44;25.83;;;16.20;;
3217;SDS011;1621;49.702;8.618;2023-01-30T05:23:10;24.60;;;15.53;;
3217;SDS011;1621;49.702;8.618;2023-01-30T05:25:36;24.07;;;15.73;;
3217;SDS011;1621;49.702;8.618;2023-01-30T05:28:02;21.97;;;15.00;;
3217;SDS011;1621;49.702;8.618;2023-01-30T05:30:29;23.87;;;16.20;;
3217;SDS011;1621;49.702;8.618;2023-01-30T05:32:56;23.50;;;15.80;;
3217;SDS011;1621;49.702;8.618;2023-01-30T05:35:23;20.33;;;14.43;;
3217;SDS011;1621;49.702;8.618;2023-01-30T05:37:50;22.87;;;16.53;;
3217;SDS011;1621;49.702;8.618;2023-01-30T05:40:16;26.57;;;15.43;;
3217;SDS011;1621;49.702;8.618;2023-01-30T05:42:42;23.50;;;15.80;;
3217;SDS011;1621;49.702;8.618;2023-01-30T05:45:09;24.10;;;16.07;;
3217;SDS011;1621;49.702;8.618;2023-01-30T05:47:35;20.57;;;14.67;;
3217;SDS011;1621;49.702;8.618;2023-01-30T05:50:01;21.60;;;14.17;;
3217;SDS011;1621;49.702;8.618;2023-01-30T05:52:29;25.20;;;16.00;;
3217;SDS011;1621;49.702;8.618;2023-01-30T05:54:56;23.40;;;15.13;;
3217;SDS011;1621;49.702;8.618;2023-01-30T05:57:22;20.87;;;14.40;;
3217;SDS011;1621;49.702;8.618;2023-01-30T05:59:48;22.37;;;15.10;;
3217;SDS011;1621;49.702;8.618;2023-01-30T06:02:14;21.47;;;14.40;;
3217;SDS011;1621;49.702;8.618;2023-01-30T06:04:41;23.17;;;14.83;;
3217;SDS011;1621;49.702;8.618;2023-01-30T06:07:07;18.00;;;12.40;;
3217;SDS011;1621;49.702;8.618;2023-01-30T06:09:34;17.67;;;13.43;;
3217;SDS011;1621;49.702;8.618;2023-01-30T06:12:01;24.13;;;14.67;;
3217;SDS011;1621;49.702;8.618;2023-01-30T06:14:27;19.47;;;13.50;;
3217;SDS011;1621;49.702;8.618;2023-01-30T06:16:53;19.60;;;13.17;;
3217;SDS011;1621;49.702;8.618;2023-01-30T06:19:19;21.07;;;14.17;;
3217;SDS011;1621;49.702;8.618;2023-01-30T06:21:45;22.80;;;15.27;;
3217;SDS011;1621;49.702;8.618;2023-01-30T06:24:12;19.50;;;13.37;;
3217;SDS011;1621;49.702;8.618;2023-01-30T06:26:39;21.23;;;13.53;;
3217;SDS011;1621;49.702;8.618;2023-01-30T06:29:05;21.37;;;14.40;;
3217;SDS011;1621;49.702;8.618;2023-01-30T06:31:32;20.87;;;13.30;;
3217;SDS011;1621;49.702;8.618;2023-01-30T06:33:58;18.57;;;13.00;;
3217;SDS011;1621;49.702;8.618;2023-01-30T06:36:24;22.47;;;13.03;;
3217;SDS011;1621;49.702;8.618;2023-01-30T06:38:50;21.40;;;14.60;;
3217;SDS011;1621;49.702;8.618;2023-01-30T06:41:17;18.93;;;13.20;;
3217;SDS011;1621;49.702;8.618;2023-01-30T06:43:44;17.57;;;12.50;;
3217;SDS011;1621;49.702;8.618;2023-01-30T06:46:10;19.97;;;13.90;;
3217;SDS011;1621;49.702;8.618;2023-01-30T06:48:37;19.57;;;13.30;;
3217;SDS011;1621;49.702;8.618;2023-01-30T06:51:03;20.63;;;13.07;;
3217;SDS011;1621;49.702;8.618;2023-01-30T06:53:29;20.23;;;12.00;;
3217;SDS011;1621;49.702;8.618;2023-01-30T06:55:56;17.70;;;11.87;;
3217;SDS011;1621;49.702;8.618;2023-01-30T06:58:22;19.80;;;13.57;;
3217;SDS011;1621;49.702;8.618;2023-01-30T07:00:50;16.43;;;11.63;;
3217;SDS011;1621;49.702;8.618;2023-01-30T07:03:17;23.30;;;13.67;;
3217;SDS011;1621;49.702;8.618;2023-01-30T07:05:43;19.47;;;12.97;;
3217;SDS011;1621;49.702;8.618;2023-01-30T07:08:10;20.37;;;12.83;;
3217;SDS011;1621;49.702;8.618;2023-01-30T07:10:37;17.60;;;11.20;;
3217;SDS011;1621;49.702;8.618;2023-01-30T07:13:03;17.30;;;11.50;;
3217;SDS011;1621;49.702;8.618;2023-01-30T07:15:29;19.60;;;12.20;;
3217;SDS011;1621;49.702;8.618;2023-01-30T07:17:57;18.20;;;11.90;;
3217;SDS011;1621;49.702;8.618;2023-01-30T07:20:23;15.97;;;11.30;;
3217;SDS011;1621;49.702;8.618;2023-01-30T07:22:50;17.50;;;11.80;;
3217;SDS011;1621;49.702;8.618;2023-01-30T07:25:16;18.90;;;11.93;;
3217;SDS011;1621;49.702;8.618;2023-01-30T07:27:42;17.17;;;11.80;;
3217;SDS011;1621;49.702;8.618;2023-01-30T07:30:14;18.53;;;12.87;;
3217;SDS011;1621;49.702;8.618;2023-01-30T07:32:40;18.30;;;11.40;;
3217;SDS011;1621;49.702;8.618;2023-01-30T07:35:08;16.13;;;11.63;;
3217;SDS011;1621;49.702;8.618;2023-01-30T07:37:35;16.03;;;12.00;;
3217;SDS011;1621;49.702;8.618;2023-01-30T07:40:01;18.17;;;12.20;;
3217;SDS011;1621;49.702;8.618;2023-01-30T07:42:27;17.30;;;11.60;;
3217;SDS011;1621;49.702;8.618;2023-01-30T07:44:53;16.40;;;11.30;;
3217;SDS011;1621;49.702;8.618;2023-01-30T07:47:20;18.13;;;12.80;;
3217;SDS011;1621;49.702;8.618;2023-01-30T07:49:46;15.97;;;11.43;;
3217;SDS011;1621;49.702;8.618;2023-01-30T07:52:13;18.27;;;12.20;;
3217;SDS011;1621;49.702;8.618;2023-01-30T07:54:40;21.30;;;11.87;;
3217;SDS011;1621;49.702;8.618;2023-01-30T07:57:06;16.27;;;11.40;;
3217;SDS011;1621;49.702;8.618;2023-01-30T07:59:32;18.30;;;12.27;;
3217;SDS011;1621;49.702;8.618;2023-01-30T08:01:58;20.63;;;12.67;;
3217;SDS011;1621;49.702;8.618;2023-01-30T08:04:25;19.50;;;10.87;;
3217;SDS011;1621;49.702;8.618;2023-01-30T08:06:51;18.90;;;12.13;;
3217;SDS011;1621;49.702;8.618;2023-01-30T08:09:18;16.90;;;11.77;;
3217;SDS011;1621;49.702;8.618;2023-01-30T08:11:45;16.40;;;11.43;;
3217;SDS011;1621;49.702;8.618;2023-01-30T08:14:11;18.67;;;13.07;;
3217;SDS011;1621;49.702;8.618;2023-01-30T08:16:37;15.30;;;10.90;;
3217;SDS011;1621;49.702;8.618;2023-01-30T08:19:04;18.23;;;11.67;;
3217;SDS011;1621;49.702;8.618;2023-01-30T08:21:31;14.87;;;10.73;;
3217;SDS011;1621;49.702;8.618;2023-01-30T08:23:57;14.70;;;11.10;;
3217;SDS011;1621;49.702;8.618;2023-01-30T08:26:25;18.00;;;12.97;;
3217;SDS011;1621;49.702;8.618;2023-01-30T08:28:51;14.70;;;10.43;;
3217;SDS011;1621;49.702;8.618;2023-01-30T08:31:20;19.13;;;12.00;;
3217;SDS011;1621;49.702;8.618;2023-01-30T08:33:46;16.20;;;11.13;;
3217;SDS011;1621;49.702;8.618;2023-01-30T08:36:13;15.13;;;10.90;;
3217;SDS011;1621;49.702;8.618;2023-01-30T08:38:39;16.73;;;11.23;;
3217;SDS011;1621;49.702;8.618;2023-01-30T08:41:05;16.13;;;11.67;;
3217;SDS011;1621;49.702;8.618;2023-01-30T08:43:33;15.53;;;11.30;;
3217;SDS011;1621;49.702;8.618;2023-01-30T08:46:00;19.77;;;13.10;;
3217;SDS011;1621;49.702;8.618;2023-01-30T08:48:26;18.17;;;11.43;;
3217;SDS011;1621;49.702;8.618;2023-01-30T08:50:52;15.93;;;11.87;;
3217;SDS011;1621;49.702;8.618;2023-01-30T08:53:19;16.67;;;12.17;;
3217;SDS011;1621;49.702;8.618;2023-01-30T08:55:48;18.93;;;12.40;;
3217;SDS011;1621;49.702;8.618;2023-01-30T08:58:14;18.57;;;12.27;;
3217;SDS011;1621;49.702;8.618;2023-01-30T09:00:41;18.33;;;11.47;;
3217;SDS011;1621;49.702;8.618;2023-01-30T09:03:08;18.00;;;12.47;;
3217;SDS011;1621;49.702;8.618;2023-01-30T09:05:36;17.00;;;12.70;;
3217;SDS011;1621;49.702;8.618;2023-01-30T09:08:02;16.70;;;11.50;;
3217;SDS011;1621;49.702;8.618;2023-01-30T09:10:28;15.97;;;11.93;;
3217;SDS011;1621;49.702;8.618;2023-01-30T09:12:54;19.83;;;12.67;;
3217;SDS011;1621;49.702;8.618;2023-01-30T09:15:21;17.00;;;12.20;;
3217;SDS011;1621;49.702;8.618;2023-01-30T09:17:48;17.90;;;12.87;;
3217;SDS011;1621;49.702;8.618;2023-01-30T09:20:16;15.77;;;12.63;;
3217;SDS011;1621;49.702;8.618;2023-01-30T09:22:44;15.80;;;12.07;;
3217;SDS011;1621;49.702;8.618;2023-01-30T09:25:10;18.63;;;12.57;;
3217;SDS011;1621;49.702;8.618;2023-01-30T09:27:37;19.40;;;13.00;;
3217;SDS011;1621;49.702;8.618;2023-01-30T09:30:03;18.90;;;13.07;;
3217;SDS011;1621;49.702;8.618;2023-01-30T09:32:30;21.60;;;11.83;;
3217;SDS011;1621;49.702;8.618;2023-01-30T09:34:57;16.17;;;12.23;;
3217;SDS011;1621;49.702;8.618;2023-01-30T09:37:23;16.80;;;12.10;;
3217;SDS011;1621;49.702;8.618;2023-01-30T09:39:50;17.97;;;12.23;;
3217;SDS011;1621;49.702;8.618;2023-01-30T09:42:22;14.83;;;11.00;;
3217;SDS011;1621;49.702;8.618;2023-01-30T09:44:54;17.90;;;12.63;;
3217;SDS011;1621;49.702;8.618;2023-01-30T09:47:27;18.43;;;11.73;;
3217;SDS011;1621;49.702;8.618;2023-01-30T09:50:01;17.23;;;12.63;;
3217;SDS011;1621;49.702;8.618;2023-01-30T09:52:32;19.47;;;11.47;;
3217;SDS011;1621;49.702;8.618;2023-01-30T09:55:02;18.67;;;12.27;;
3217;SDS011;1621;49.702;8.618;2023-01-30T09:57:36;20.30;;;12.57;;
3217;SDS011;1621;49.702;8.618;2023-01-30T10:00:04;17.40;;;11.50;;
3217;SDS011;1621;49.702;8.618;2023-01-30T10:02:44;15.47;;;11.17;;
3217;SDS011;1621;49.702;8.618;2023-01-30T10:05:13;17.30;;;11.43;;
3217;SDS011;1621;49.702;8.618;2023-01-30T10:07:46;17.10;;;11.40;;
3217;SDS011;1621;49.702;8.618;2023-01-30T10:10:16;17.37;;;11.67;;
3217;SDS011;1621;49.702;8.618;2023-01-30T10:12:46;17.00;;;11.60;;
3217;SDS011;1621;49.702;8.618;2023-01-30T10:15:27;20.00;;;11.10;;
3217;SDS011;1621;49.702;8.618;2023-01-30T10:18:02;17.20;;;11.67;;
3217;SDS011;1621;49.702;8.618;2023-01-30T10:20:36;13.40;;;10.20;;
3217;SDS011;1621;49.702;8.618;2023-01-30T10:23:09;16.00;;;11.20;;
3217;SDS011;1621;49.702;8.618;2023-01-30T10:25:39;17.30;;;11.43;;
3217;SDS011;1621;49.702;8.618;2023-01-30T10:28:10;15.90;;;10.97;;
3217;SDS011;1621;49.702;8.618;2023-01-30T10:30:37;14.03;;;10.40;;
3217;SDS011;1621;49.702;8.618;2023-01-30T10:33:04;15.60;;;11.00;;
3217;SDS011;1621;49.702;8.618;2023-01-30T10:35:33;15.70;;;10.87;;
3217;SDS011;1621;49.702;8.618;2023-01-30T10:38:03;12.27;;;9.70;;
3217;SDS011;1621;49.702;8.618;2023-01-30T10:40:32;14.97;;;10.50;;
3217;SDS011;1621;49.702;8.618;2023-01-30T10:43:03;12.97;;;8.93;;
3217;SDS011;1621;49.702;8.618;2023-01-30T10:45:35;13.10;;;9.00;;
3217;SDS011;1621;49.702;8.618;2023-01-30T10:48:08;11.00;;;8.10;;
3217;SDS011;1621;49.702;8.618;2023-01-30T10:50:41;11.60;;;7.90;;
3217;SDS011;1621;49.702;8.618;2023-01-30T10:53:12;14.20;;;8.77;;
3217;SDS011;1621;49.702;8.618;2023-01-30T10:55:41;12.37;;;8.80;;
3217;SDS011;1621;49.702;8.618;2023-01-30T10:58:13;12.40;;;8.83;;
3217;SDS011;1621;49.702;8.618;2023-01-30T11:00:42;12.17;;;8.63;;
3217;SDS011;1621;49.702;8.618;2023-01-30T11:03:12;13.30;;;9.20;;
3217;SDS011;1621;49.702;8.618;2023-01-30T11:05:40;9.37;;;7.73;;
3217;SDS011;1621;49.702;8.618;2023-01-30T11:08:12;11.10;;;7.60;;
3217;SDS011;1621;49.702;8.618;2023-01-30T11:10:43;7.07;;;5.17;;
3217;SDS011;1621;49.702;8.618;2023-01-30T11:13:10;9.83;;;5.30;;
3217;SDS011;1621;49.702;8.618;2023-01-30T11:15:38;6.43;;;4.80;;
3217;SDS011;1621;49.702;8.618;2023-01-30T11:18:05;6.60;;;4.67;;
3217;SDS011;1621;49.702;8.618;2023-01-30T11:20:33;7.10;;;4.50;;
3217;SDS011;1621;49.702;8.618;2023-01-30T11:23:05;5.93;;;4.53;;
3217;SDS011;1621;49.702;8.618;2023-01-30T11:25:32;6.37;;;4.80;;
3217;SDS011;1621;49.702;8.618;2023-01-30T11:28:11;6.20;;;4.73;;
3217;SDS011;1621;49.702;8.618;2023-01-30T11:30:39;5.57;;;4.03;;
3217;SDS011;1621;49.702;8.618;2023-01-30T11:33:10;8.40;;;5.60;;
3217;SDS011;1621;49.702;8.618;2023-01-30T11:35:37;5.53;;;4.10;;
3217;SDS011;1621;49.702;8.618;2023-01-30T11:38:10;6.13;;;4.60;;
3217;SDS011;1621;49.702;8.618;2023-01-30T11:40:38;4.20;;;3.40;;
3217;SDS011;1621;49.702;8.618;2023-01-30T11:43:08;5.80;;;4.37;;
3217;SDS011;1621;49.702;8.618;2023-01-30T11:45:35;6.00;;;4.47;;
3217;SDS011;1621;49.702;8.618;2023-01-30T11:48:03;5.60;;;4.00;;
3217;SDS011;1621;49.702;8.618;2023-01-30T11:50:32;5.33;;;4.03;;
3217;SDS011;1621;49.702;8.618;2023-01-30T11:52:59;5.13;;;3.73;;
3217;SDS011;1621;49.702;8.618;2023-01-30T11:55:27;5.33;;;4.47;;
3217;SDS011;1621;49.702;8.618;2023-01-30T11:57:55;4.43;;;4.00;;
3217;SDS011;1621;49.702;8.618;2023-01-30T12:00:24;5.17;;;4.00;;
3217;SDS011;1621;49.702;8.618;2023-01-30T12:02:51;4.90;;;4.00;;
3217;SDS011;1621;49.702;8.618;2023-01-30T12:05:21;5.60;;;4.37;;
3217;SDS011;1621;49.702;8.618;2023-01-30T12:07:49;6.50;;;4.23;;
3217;SDS011;1621;49.702;8.618;2023-01-30T12:10:24;5.90;;;4.30;;
3217;SDS011;1621;49.702;8.618;2023-01-30T12:12:51;7.60;;;5.17;;
3217;SDS011;1621;49.702;8.618;2023-01-30T12:15:20;6.13;;;4.30;;
3217;SDS011;1621;49.702;8.618;2023-01-30T12:17:49;5.50;;;4.27;;
3217;SDS011;1621;49.702;8.618;2023-01-30T12:20:19;6.40;;;4.47;;
3217;SDS011;1621;49.702;8.618;2023-01-30T12:22:50;5.20;;;4.10;;
3217;SDS011;1621;49.702;8.618;2023-01-30T12:25:19;5.00;;;4.10;;
3217;SDS011;1621;49.702;8.618;2023-01-30T12:27:49;5.20;;;4.27;;
3217;SDS011;1621;49.702;8.618;2023-01-30T12:30:20;5.93;;;4.30;;
3217;SDS011;1621;49.702;8.618;2023-01-30T12:32:49;5.40;;;4.50;;
3217;SDS011;1621;49.702;8.618;2023-01-30T12:35:17;6.70;;;4.40;;
3217;SDS011;1621;49.702;8.618;2023-01-30T12:37:46;6.57;;;4.20;;
3217;SDS011;1621;49.702;8.618;2023-01-30T12:40:18;5.87;;;3.50;;
3217;SDS011;1621;49.702;8.618;2023-01-30T12:42:52;6.57;;;3.77;;
3217;SDS011;1621;49.702;8.618;2023-01-30T12:45:22;4.13;;;3.17;;
3217;SDS011;1621;49.702;8.618;2023-01-30T12:50:44;6.63;;;4.70;;
3217;SDS011;1621;49.702;8.618;2023-01-30T12:53:24;7.10;;;4.43;;
3217;SDS011;1621;49.702;8.618;2023-01-30T12:55:55;6.23;;;4.87;;
3217;SDS011;1621;49.702;8.618;2023-01-30T12:58:26;6.17;;;3.90;;
3217;SDS011;1621;49.702;8.618;2023-01-30T13:01:04;5.03;;;4.17;;
3217;SDS011;1621;49.702;8.618;2023-01-30T13:03:34;5.60;;;4.30;;
3217;SDS011;1621;49.702;8.618;2023-01-30T13:06:05;6.73;;;4.30;;
3217;SDS011;1621;49.702;8.618;2023-01-30T13:08:36;7.20;;;4.67;;
3217;SDS011;1621;49.702;8.618;2023-01-30T13:11:08;5.97;;;4.77;;
3217;SDS011;1621;49.702;8.618;2023-01-30T13:13:39;7.33;;;4.60;;
3217;SDS011;1621;49.702;8.618;2023-01-30T13:16:12;6.47;;;4.90;;
3217;SDS011;1621;49.702;8.618;2023-01-30T13:18:41;5.80;;;4.80;;
3217;SDS011;1621;49.702;8.618;2023-01-30T13:21:10;8.03;;;5.40;;
3217;SDS011;1621;49.702;8.618;2023-01-30T13:23:40;6.27;;;4.90;;
3217;SDS011;1621;49.702;8.618;2023-01-30T13:26:12;7.57;;;5.30;;
3217;SDS011;1621;49.702;8.618;2023-01-30T13:28:40;5.67;;;4.73;;
3217;SDS011;1621;49.702;8.618;2023-01-30T13:31:10;7.10;;;5.57;;
3217;SDS011;1621;49.702;8.618;2023-01-30T13:33:39;6.57;;;5.37;;
3217;SDS011;1621;49.702;8.618;2023-01-30T13:36:09;6.70;;;5.20;;
3217;SDS011;1621;49.702;8.618;2023-01-30T13:38:37;8.93;;;7.00;;
3217;SDS011;1621;49.702;8.618;2023-01-30T13:41:05;10.77;;;7.50;;
3217;SDS011;1621;49.702;8.618;2023-01-30T13:43:34;10.27;;;7.20;;
3217;SDS011;1621;49.702;8.618;2023-01-30T13:46:03;8.43;;;5.70;;
3217;SDS011;1621;49.702;8.618;2023-01-30T13:48:45;8.60;;;5.30;;
3217;SDS011;1621;49.702;8.618;2023-01-30T13:51:20;8.93;;;6.60;;
3217;SDS011;1621;49.702;8.618;2023-01-30T13:53:49;7.60;;;5.93;;
3217;SDS011;1621;49.702;8.618;2023-01-30T13:56:19;8.67;;;5.80;;
3217;SDS011;1621;49.702;8.618;2023-01-30T13:58:48;7.20;;;5.27;;
3217;SDS011;1621;49.702;8.618;2023-01-30T14:01:16;7.60;;;5.70;;
3217;SDS011;1621;49.702;8.618;2023-01-30T14:03:44;6.10;;;5.07;;
3217;SDS011;1621;49.702;8.618;2023-01-30T14:06:12;6.80;;;5.37;;
3217;SDS011;1621;49.702;8.618;2023-01-30T14:08:40;6.30;;;5.10;;
3217;SDS011;1621;49.702;8.618;2023-01-30T14:11:26;6.70;;;5.00;;
3217;SDS011;1621;49.702;8.618;2023-01-30T14:13:53;5.70;;;4.63;;
3217;SDS011;1621;49.702;8.618;2023-01-30T14:16:23;7.20;;;5.80;;
3217;SDS011;1621;49.702;8.618;2023-01-30T14:18:49;6.60;;;5.50;;
3217;SDS011;1621;49.702;8.618;2023-01-30T14:21:17;6.17;;;4.80;;
3217;SDS011;1621;49.702;8.618;2023-01-30T14:23:53;8.93;;;5.90;;
3217;SDS011;1621;49.702;8.618;2023-01-30T14:29:00;6.80;;;6.00;;
3217;SDS011;1621;49.702;8.618;2023-01-30T14:45:41;7.77;;;5.60;;
3217;SDS011;1621;49.702;8.618;2023-01-30T14:48:26;8.93;;;6.80;;
3217;SDS011;1621;49.702;8.618;2023-01-30T14:53:34;7.10;;;5.40;;
3217;SDS011;1621;49.702;8.618;2023-01-30T14:56:02;9.80;;;4.90;;
3217;SDS011;1621;49.702;8.618;2023-01-30T14:58:28;8.27;;;5.83;;
3217;SDS011;1621;49.702;8.618;2023-01-30T15:00:57;7.60;;;5.60;;
3217;SDS011;1621;49.702;8.618;2023-01-30T15:03:23;10.00;;;7.23;;
3217;SDS011;1621;49.702;8.618;2023-01-30T15:05:50;7.50;;;5.77;;
3217;SDS011;1621;49.702;8.618;2023-01-30T15:08:17;7.60;;;5.70;;
3217;SDS011;1621;49.702;8.618;2023-01-30T15:11:00;9.00;;;5.67;;
3217;SDS011;1621;49.702;8.618;2023-01-30T15:13:37;7.13;;;5.43;;
3217;SDS011;1621;49.702;8.618;2023-01-30T15:16:11;8.20;;;5.73;;
3217;SDS011;1621;49.702;8.618;2023-01-30T15:18:42;6.47;;;5.10;;
3217;SDS011;1621;49.702;8.618;2023-01-30T15:21:24;6.47;;;4.90;;
3217;SDS011;1621;49.702;8.618;2023-01-30T15:24:02;9.03;;;5.50;;
3217;SDS011;1621;49.702;8.618;2023-01-30T15:26:36;6.20;;;5.40;;
3217;SDS011;1621;49.702;8.618;2023-01-30T15:29:10;8.63;;;6.40;;
3217;SDS011;1621;49.702;8.618;2023-01-30T15:31:52;7.10;;;5.63;;